Time;durP1;ratioP1;P1;durP2;ratioP2;P2;SDS_P1;SDS_P2;PMS_P1;PMS_P2;Temp;Humidity;BMP_temperature;BMP_pressure;BME280_temperature;BME280_humidity;BME280_pressure;Samples;Min_cycle;Max_cycle;Signal;HPM_P1;HPM_P2
2020/12/07 00:01:44;;;;;;;17.10;9.30;;;;;;;6.67;95.22;101694.16;6212458;28;20201;-78
2020/12/07 00:04:49;;;;;;;18.53;9.40;;;;;;;6.81;93.67;101686.16;6211954;28;20201;-77
2020/12/07 00:07:52;;;;;;;23.03;9.83;;;;;;;6.84;93.77;101698.53;6216346;28;20208;-77
2020/12/07 00:10:55;;;;;;;16.50;9.10;;;;;;;6.84;93.25;101687.69;6209776;28;20289;-79
2020/12/07 00:14:00;;;;;;;17.33;8.90;;;;;;;6.88;93.35;101689.06;6209231;28;20547;-78
2020/12/07 00:17:04;;;;;;;21.27;9.57;;;;;;;6.75;94.35;101684.13;6214725;28;20660;-79
2020/12/07 00:20:10;;;;;;;20.63;10.03;;;;;;;6.71;95.32;101685.50;6216898;28;20201;-76
2020/12/07 00:23:21;;;;;;;18.77;9.50;;;;;;;6.67;96.06;101680.59;6205124;28;20243;-78
2020/12/07 00:26:24;;;;;;;17.80;8.83;;;;;;;6.69;94.85;101673.13;6198613;28;20394;-79
2020/12/07 00:29:28;;;;;;;18.90;9.63;;;;;;;6.92;93.72;101668.69;6215736;28;20663;-77
2020/12/07 00:32:32;;;;;;;16.67;9.17;;;;;;;6.54;93.11;101596.22;6212737;28;20219;-78
2020/12/07 00:35:36;;;;;;;18.33;9.10;;;;;;;6.84;93.67;101666.00;6216507;28;20202;-78
2020/12/07 00:38:40;;;;;;;18.10;9.20;;;;;;;6.73;94.29;101655.50;6217083;28;20706;-77
2020/12/07 00:41:44;;;;;;;20.47;10.10;;;;;;;6.86;93.88;101653.94;6216900;28;20211;-78
2020/12/07 00:44:48;;;;;;;21.03;9.77;;;;;;;6.76;94.57;101653.28;6213169;28;20218;-77
2020/12/07 00:47:52;;;;;;;20.70;10.13;;;;;;;6.66;94.55;101651.78;6207107;28;20242;-77
2020/12/07 00:50:56;;;;;;;25.33;10.30;;;;;;;6.83;93.06;101637.19;6215320;28;20220;-77
2020/12/07 00:53:59;;;;;;;25.30;10.77;;;;;;;6.68;94.25;101628.03;6199654;28;20727;-77
2020/12/07 00:57:03;;;;;;;22.40;10.30;;;;;;;6.61;93.99;101622.47;6210882;28;20435;-79
2020/12/07 01:00:13;;;;;;;22.63;10.70;;;;;;;6.54;93.41;101607.06;6198467;28;20364;-77
2020/12/07 01:03:34;;;;;;;19.00;9.43;;;;;;;6.54;94.80;101631.47;6197795;28;20817;-78
2020/12/07 01:06:38;;;;;;;22.60;11.43;;;;;;;6.66;93.95;101630.09;6209084;28;20212;-78
2020/12/07 01:09:42;;;;;;;25.77;11.40;;;;;;;6.71;93.47;101625.00;6216248;28;20310;-79
2020/12/07 01:12:46;;;;;;;22.03;10.67;;;;;;;6.74;93.12;101639.06;6195111;28;20209;-78
2020/12/07 01:15:52;;;;;;;23.47;10.73;;;;;;;6.55;94.54;101633.19;6219067;28;20196;-79
2020/12/07 01:18:57;;;;;;;22.83;10.93;;;;;;;6.67;93.38;101639.94;6229638;28;20227;-81
2020/12/07 01:22:02;;;;;;;25.90;10.83;;;;;;;6.77;92.62;101644.16;6199565;28;20291;-77
2020/12/07 01:25:09;;;;;;;22.10;11.17;;;;;;;6.69;93.76;101640.59;6215291;28;20209;-78
2020/12/07 01:28:22;;;;;;;23.80;11.27;;;;;;;6.46;92.52;101582.69;6215971;28;20209;-78
2020/12/07 01:31:27;;;;;;;22.37;11.03;;;;;;;6.77;91.80;101621.59;6211313;28;20331;-77
2020/12/07 01:34:30;;;;;;;25.30;11.07;;;;;;;6.62;93.30;101639.59;6211420;28;20674;-77
2020/12/07 01:37:34;;;;;;;21.70;10.70;;;;;;;6.58;92.43;101641.78;6210239;28;20648;-79
2020/12/07 01:40:38;;;;;;;28.47;11.17;;;;;;;6.50;91.63;101603.00;6215435;28;20212;-77
2020/12/07 01:43:42;;;;;;;23.93;10.93;;;;;;;6.54;92.51;101634.19;6214176;28;20478;-78
2020/12/07 01:46:46;;;;;;;27.40;11.80;;;;;;;6.43;93.49;101639.94;6214860;28;20241;-78
2020/12/07 01:49:52;;;;;;;23.93;10.90;;;;;;;6.72;91.66;101645.69;6198121;28;20232;-77
2020/12/07 01:52:58;;;;;;;25.67;11.27;;;;;;;6.57;92.52;101625.72;6197693;28;20200;-78
2020/12/07 01:56:01;;;;;;;22.43;11.50;;;;;;;6.63;92.74;101636.69;6211341;28;20683;-77
2020/12/07 01:59:10;;;;;;;24.47;11.73;;;;;;;6.55;93.63;101644.03;6194759;28;20649;-79
2020/12/07 02:02:22;;;;;;;24.70;11.93;;;;;;;6.76;91.93;101647.00;6202243;28;20256;-77
2020/12/07 02:05:27;;;;;;;24.73;12.37;;;;;;;6.78;91.63;101650.41;6218724;28;20272;-78
2020/12/07 02:08:35;;;;;;;29.77;12.00;;;;;;;6.74;91.58;101643.63;6224917;28;20224;-77
2020/12/07 02:11:49;;;;;;;26.23;12.03;;;;;;;6.70;91.36;101653.16;6219383;28;20233;-78
2020/12/07 02:14:54;;;;;;;24.57;12.07;;;;;;;6.74;91.66;101660.75;6202229;28;20212;-78
2020/12/07 02:17:58;;;;;;;25.13;12.17;;;;;;;6.65;91.98;101650.09;6202500;28;20331;-78
2020/12/07 02:21:03;;;;;;;24.20;12.33;;;;;;;6.56;92.40;101645.69;6197307;28;20217;-78
2020/12/07 02:24:25;;;;;;;29.60;13.67;;;;;;;6.58;91.62;101635.50;6219549;28;20304;-79
2020/12/07 02:28:07;;;;;;;29.70;12.53;;;;;;;6.57;92.47;101641.97;6169505;28;20322;-77
2020/12/07 02:31:10;;;;;;;27.33;13.20;;;;;;;6.59;92.27;101639.94;6183774;28;20304;-78
2020/12/07 02:34:15;;;;;;;29.87;13.67;;;;;;;6.78;91.42;101640.41;6193161;28;20232;-77
2020/12/07 02:37:26;;;;;;;24.03;12.30;;;;;;;6.66;92.28;101630.09;6181749;28;20210;-79
2020/12/07 02:40:32;;;;;;;29.57;13.37;;;;;;;6.59;93.30;101634.50;6178154;28;20298;-77
2020/12/07 02:43:36;;;;;;;31.90;13.37;;;;;;;6.54;93.48;101626.91;6181441;28;20221;-78
2020/12/07 02:46:41;;;;;;;36.50;13.53;;;;;;;6.70;92.37;101628.75;6180487;28;20587;-78
2020/12/07 02:49:47;;;;;;;34.57;13.23;;;;;;;6.56;92.00;101629.44;6177456;28;20256;-77
2020/12/07 02:52:54;;;;;;;32.77;13.17;;;;;;;6.91;90.69;101634.44;6177674;28;20210;-76
2020/12/07 02:55:57;;;;;;;35.27;14.20;;;;;;;6.86;90.07;101613.25;6185093;28;20209;-77
2020/12/07 02:59:01;;;;;;;27.77;13.20;;;;;;;6.87;90.55;101633.09;6175561;28;20202;-78
2020/12/07 03:02:05;;;;;;;31.90;13.83;;;;;;;6.91;90.50;101634.44;6160488;28;20669;-80
2020/12/07 03:05:09;;;;;;;27.97;13.80;;;;;;;6.94;90.60;101636.81;6169936;28;20292;-78
2020/12/07 03:08:16;;;;;;;30.40;13.50;;;;;;;6.86;91.17;101639.53;6177382;28;20234;-78
2020/12/07 03:11:21;;;;;;;32.47;14.47;;;;;;;6.87;90.98;101638.53;6170351;28;20211;-76
2020/12/07 03:14:25;;;;;;;28.55;13.35;;;;;;;6.75;91.50;101631.78;6191997;28;20482;-77
2020/12/07 03:17:28;;;;;;;30.27;14.47;;;;;;;6.66;91.49;101605.69;6178400;28;20550;-78
2020/12/07 03:20:33;;;;;;;35.63;14.90;;;;;;;6.68;91.27;101612.63;6181691;28;20220;-78
2020/12/07 03:23:38;;;;;;;29.27;13.70;;;;;;;6.60;91.74;101598.25;6174653;28;20658;-78
2020/12/07 03:26:48;;;;;;;33.00;14.73;;;;;;;6.66;93.30;101646.34;6192814;28;20403;-77
2020/12/07 03:29:56;;;;;;;31.20;15.00;;;;;;;6.78;92.74;101628.69;6189262;28;20228;-78
2020/12/07 03:33:02;;;;;;;38.47;14.63;;;;;;;6.49;93.02;101617.59;6200311;28;20344;-78
2020/12/07 03:36:12;;;;;;;29.57;14.60;;;;;;;6.74;92.33;101627.38;6216087;28;20198;-77
2020/12/07 03:39:18;;;;;;;27.17;13.87;;;;;;;6.94;91.45;101639.50;6200619;28;20224;-78
2020/12/07 03:42:31;;;;;;;31.40;15.57;;;;;;;6.87;91.58;101638.53;6203497;28;20739;-78
2020/12/07 03:45:38;;;;;;;30.63;15.33;;;;;;;6.92;91.09;101625.28;6201559;28;20245;-79
2020/12/07 03:48:42;;;;;;;34.53;15.33;;;;;;;6.84;91.03;101612.59;6202052;28;20296;-78
2020/12/07 03:51:49;;;;;;;32.60;15.33;;;;;;;6.86;91.52;101609.69;6204559;28;20633;-78
2020/12/07 03:54:54;;;;;;;37.13;15.23;;;;;;;6.95;91.15;101614.09;6205602;28;20247;-78
2020/12/07 03:58:00;;;;;;;28.73;14.73;;;;;;;6.89;90.97;101614.78;6195438;28;21443;-79
2020/12/07 04:01:06;;;;;;;34.40;14.80;;;;;;;6.66;91.65;101619.25;6196743;28;20202;-76
2020/12/07 04:04:16;;;;;;;28.13;14.50;;;;;;;6.83;91.87;101620.91;6210239;28;20206;-78
2020/12/07 04:07:19;;;;;;;32.90;15.07;;;;;;;6.97;91.06;101612.03;6209482;28;20340;-77
2020/12/07 04:10:27;;;;;;;31.43;14.23;;;;;;;6.87;92.10;101605.97;6193401;28;20217;-77
2020/12/07 04:13:33;;;;;;;31.30;14.33;;;;;;;6.72;93.25;101607.72;6211336;28;20312;-79
2020/12/07 04:16:36;;;;;;;39.57;16.47;;;;;;;6.79;92.54;101606.00;6213908;28;20670;-79
2020/12/07 04:19:39;;;;;;;28.17;14.17;;;;;;;7.01;91.02;101591.66;6213695;28;20640;-79
2020/12/07 04:22:42;;;;;;;32.43;14.47;;;;;;;6.86;92.08;101602.41;6210797;28;20664;-78
2020/12/07 04:25:46;;;;;;;29.40;14.17;;;;;;;6.98;91.03;101602.03;6215202;28;20283;-77
2020/12/07 04:28:50;;;;;;;31.50;15.13;;;;;;;7.01;90.96;101591.66;6214405;28;20216;-77
2020/12/07 04:31:53;;;;;;;32.50;15.15;;;;;;;6.98;90.79;101596.63;6205939;28;20213;-77
2020/12/07 04:34:57;;;;;;;35.20;14.50;;;;;;;6.97;90.67;101584.91;6216524;28;20204;-77
2020/12/07 04:38:00;;;;;;;27.83;14.63;;;;;;;6.83;91.01;101572.09;6216271;28;20189;-76
2020/12/07 04:41:05;;;;;;;29.63;13.88;;;;;;;6.82;91.24;101570.38;6213576;28;20216;-78
2020/12/07 04:44:09;;;;;;;34.67;14.60;;;;;;;7.03;90.25;101600.50;6217051;28;20204;-77
2020/12/07 04:47:17;;;;;;;29.33;14.47;;;;;;;7.02;90.14;101582.50;6204278;28;20194;-79
2020/12/07 04:50:21;;;;;;;31.00;13.97;;;;;;;6.91;90.49;101591.03;6212010;28;20244;-77
2020/12/07 04:53:26;;;;;;;31.75;14.75;;;;;;;6.87;91.00;101589.69;6213297;28;20278;-78
2020/12/07 04:56:32;;;;;;;29.80;14.43;;;;;;;6.55;92.69;101568.09;6217055;28;20209;-77
2020/12/07 04:59:40;;;;;;;28.87;13.73;;;;;;;6.77;91.58;101583.63;6196549;28;20779;-78
2020/12/07 05:02:44;;;;;;;31.77;13.80;;;;;;;6.96;90.28;101588.63;6217305;28;20198;-78
2020/12/07 05:05:50;;;;;;;26.60;13.77;;;;;;;6.74;91.12;101583.97;6212783;28;20193;-79
2020/12/07 05:08:54;;;;;;;28.63;13.77;;;;;;;6.88;90.31;101594.09;6236305;28;20209;-77
2020/12/07 05:12:01;;;;;;;33.30;14.30;;;;;;;6.89;90.27;101599.34;6217310;28;20297;-77
2020/12/07 05:15:09;;;;;;;27.27;13.23;;;;;;;6.89;89.27;101587.66;6208338;28;20643;-78
2020/12/07 05:18:19;;;;;;;22.23;12.33;;;;;;;6.87;88.31;101589.69;6207482;28;20190;-76
2020/12/07 05:21:22;;;;;;;25.60;12.43;;;;;;;6.95;88.18;101592.38;6217045;28;20201;-77
2020/12/07 05:24:25;;;;;;;26.53;11.73;;;;;;;6.88;88.29;101584.09;6214934;28;20683;-78
2020/12/07 05:27:32;;;;;;;20.27;11.63;;;;;;;6.93;88.19;101586.28;6215298;28;20324;-78
2020/12/07 05:30:41;;;;;;;18.83;11.70;;;;;;;6.82;88.69;101592.09;6214206;28;20216;-77
2020/12/07 05:33:46;;;;;;;19.40;10.85;;;;;;;6.95;88.12;101586.97;6211252;28;20252;-79
2020/12/07 05:36:54;;;;;;;20.13;11.00;;;;;;;6.96;88.26;101577.78;6220448;28;20727;-77
2020/12/07 05:39:57;;;;;;;22.60;10.70;;;;;;;6.84;88.70;101587.31;6221485;28;20288;-77
2020/12/07 05:43:01;;;;;;;18.77;10.53;;;;;;;7.02;88.00;101587.94;6222701;28;20197;-78
2020/12/07 05:46:06;;;;;;;22.57;10.50;;;;;;;6.69;89.16;101575.50;6222123;28;20434;-78
2020/12/07 05:49:15;;;;;;;22.80;10.87;;;;;;;6.97;88.22;101590.34;6220106;28;20623;-77
2020/12/07 05:52:29;;;;;;;21.80;10.77;;;;;;;6.82;88.60;101589.38;6216195;28;20214;-78
2020/12/07 05:55:33;;;;;;;16.73;9.87;;;;;;;6.88;88.66;101596.81;6220245;28;20198;-78
2020/12/07 05:58:48;;;;;;;21.63;9.50;;;;;;;6.96;88.16;101588.63;6219449;28;20764;-77
2020/12/07 06:01:52;;;;;;;16.43;9.27;;;;;;;6.97;87.20;101594.91;6217994;28;20198;-78
2020/12/07 06:05:03;;;;;;;19.40;9.93;;;;;;;6.83;87.70;101599.22;6220294;28;20192;-79
2020/12/07 06:08:12;;;;;;;16.83;9.20;;;;;;;6.80;88.10;101588.72;6203733;28;20211;-77
2020/12/07 06:11:18;;;;;;;24.73;8.97;;;;;;;6.87;87.60;101611.41;6218823;28;20710;-77
2020/12/07 06:14:23;;;;;;;17.00;8.50;;;;;;;6.86;87.31;101615.13;6215352;28;20216;-77
2020/12/07 06:17:31;;;;;;;17.87;8.63;;;;;;;6.88;87.27;101618.53;6214964;28;20340;-78
2020/12/07 06:20:37;;;;;;;15.97;8.17;;;;;;;6.87;86.76;101605.97;6221053;28;20258;-80
2020/12/07 06:23:42;;;;;;;16.40;8.90;;;;;;;6.91;86.57;101602.72;6219618;28;20209;-77
2020/12/07 06:27:00;;;;;;;13.93;8.33;;;;;;;6.79;86.67;101597.84;6219996;28;20693;-79
2020/12/07 06:30:06;;;;;;;14.10;8.30;;;;;;;6.81;87.51;101625.63;6215286;28;20197;-78
2020/12/07 06:33:14;;;;;;;14.90;8.60;;;;;;;6.96;86.97;101625.78;6211131;28;20200;-79
2020/12/07 06:36:30;;;;;;;13.10;8.43;;;;;;;6.92;86.24;101609.00;6219996;28;20683;-78
2020/12/07 06:39:43;;;;;;;16.30;8.83;;;;;;;6.79;87.30;101619.56;6219865;28;20644;-78
2020/12/07 06:42:48;;;;;;;16.37;8.53;;;;;;;6.84;86.81;101622.59;6231606;28;20201;-79
2020/12/07 06:45:52;;;;;;;13.93;8.73;;;;;;;6.74;87.73;101616.50;6242946;28;20239;-80
2020/12/07 06:48:58;;;;;;;15.13;8.53;;;;;;;6.74;88.18;101621.94;6222619;28;20229;-78
2020/12/07 06:52:07;;;;;;;16.77;9.83;;;;;;;6.75;87.76;101623.66;6217363;28;20232;-78
2020/12/07 06:55:12;;;;;;;14.93;8.93;;;;;;;6.74;86.44;101581.25;6216607;28;20211;-78
2020/12/07 06:58:38;;;;;;;14.13;8.87;;;;;;;6.80;86.34;101621.25;6207693;28;20236;-79
2020/12/07 07:01:51;;;;;;;13.67;8.00;;;;;;;6.72;86.63;101634.84;6205679;28;20725;-76
2020/12/07 07:04:57;;;;;;;15.13;7.87;;;;;;;6.79;86.28;101625.81;6217812;28;20266;-78
2020/12/07 07:08:00;;;;;;;16.23;7.77;;;;;;;6.74;85.66;101635.50;6201239;28;20207;-77
2020/12/07 07:11:08;;;;;;;10.10;7.23;;;;;;;6.76;85.25;101630.75;6200520;28;20314;-77
2020/12/07 07:14:11;;;;;;;10.80;6.13;;;;;;;6.42;85.99;101622.00;6201211;28;20623;-76
2020/12/07 07:17:16;;;;;;;16.60;7.23;;;;;;;6.60;85.32;101637.03;6202580;28;20204;-75
2020/12/07 07:20:19;;;;;;;7.77;6.87;;;;;;;6.72;84.61;101629.41;6218158;28;20619;-79
2020/12/07 07:23:25;;;;;;;11.10;7.27;;;;;;;6.59;85.50;101639.94;6218041;28;20755;-78
2020/12/07 07:26:33;;;;;;;11.90;6.90;;;;;;;6.71;84.78;101639.41;6198918;28;20233;-77
2020/12/07 07:29:36;;;;;;;15.70;7.17;;;;;;;6.74;85.61;101647.19;6210956;28;20545;-77
2020/12/07 07:32:43;;;;;;;18.97;7.00;;;;;;;6.61;85.78;101640.59;6212068;28;20306;-77
2020/12/07 07:35:46;;;;;;;12.60;6.77;;;;;;;6.52;84.94;101622.66;6217938;28;20202;-79
2020/12/07 07:38:53;;;;;;;10.60;6.53;;;;;;;6.73;84.26;101663.63;6217672;28;20197;-77
2020/12/07 07:42:06;;;;;;;8.73;6.10;;;;;;;6.35;83.71;101602.84;6218410;28;20201;-78
2020/12/07 07:45:10;;;;;;;8.97;6.27;;;;;;;6.61;84.00;101659.59;6217888;28;20212;-77
2020/12/07 07:48:21;;;;;;;9.87;6.37;;;;;;;6.67;83.69;101658.91;6207756;28;20227;-77
2020/12/07 08:02:16;;;;;;;8.60;5.70;;;;;;;6.55;82.91;101660.28;6212903;28;20198;-80
2020/12/07 08:15:45;;;;;;;6.07;5.53;;;;;;;6.41;83.87;101674.50;6205943;28;20220;-79
2020/12/07 08:18:52;;;;;;;10.83;5.43;;;;;;;6.29;82.91;101634.19;6216862;28;20246;-78
2020/12/07 08:22:10;;;;;;;8.97;5.70;;;;;;;6.44;82.76;101671.47;6207517;28;20216;-78
2020/12/07 08:25:17;;;;;;;9.13;5.73;;;;;;;6.43;82.92;101645.38;6205549;28;20656;-78
2020/12/07 08:28:31;;;;;;;9.70;5.47;;;;;;;6.46;82.15;101661.28;6215508;28;20211;-79
2020/12/07 08:31:36;;;;;;;13.37;6.03;;;;;;;6.50;82.62;101662.63;6214982;28;20653;-79
2020/12/07 08:34:39;;;;;;;11.37;5.10;;;;;;;6.56;81.85;101667.38;6217832;28;20229;-78
2020/12/07 08:37:43;;;;;;;11.07;5.90;;;;;;;6.43;83.20;101667.06;6217636;28;20398;-78
2020/12/07 08:40:47;;;;;;;8.23;5.83;;;;;;;6.44;82.86;101657.91;6215858;28;20340;-78
2020/12/07 08:43:52;;;;;;;7.00;5.17;;;;;;;6.51;81.79;101669.75;6210929;28;20197;-78
2020/12/07 08:46:55;;;;;;;8.47;5.17;;;;;;;6.49;82.43;101682.66;6215513;28;20511;-78
2020/12/07 08:49:58;;;;;;;8.43;4.77;;;;;;;6.47;81.16;101663.00;6215344;28;20229;-79
2020/12/07 08:53:03;;;;;;;9.50;5.67;;;;;;;6.39;81.67;101649.44;6214901;28;20252;-78
2020/12/07 08:56:08;;;;;;;9.60;5.23;;;;;;;6.32;81.80;101653.88;6215876;28;20193;-77
2020/12/07 08:59:12;;;;;;;8.70;4.97;;;;;;;6.27;80.52;101630.81;6211582;28;20252;-78
2020/12/07 09:02:15;;;;;;;8.00;5.40;;;;;;;6.38;80.55;101669.44;6198112;28;20205;-77
2020/12/07 09:05:20;;;;;;;9.67;5.50;;;;;;;6.36;80.80;101671.47;6216242;28;20198;-77
2020/12/07 09:08:25;;;;;;;9.00;4.90;;;;;;;6.15;81.16;101647.56;6207909;28;20686;-78
2020/12/07 09:11:29;;;;;;;6.57;4.67;;;;;;;6.46;80.03;101677.56;6204065;28;20228;-78
2020/12/07 09:14:32;;;;;;;5.87;4.80;;;;;;;6.32;80.36;101675.53;6197916;28;20213;-78
2020/12/07 09:17:35;;;;;;;5.23;4.80;;;;;;;6.44;79.98;101685.03;6221014;28;20351;-78
2020/12/07 09:20:39;;;;;;;5.87;4.93;;;;;;;6.32;81.32;101692.63;6219739;28;20193;-78
2020/12/07 09:23:44;;;;;;;7.97;5.40;;;;;;;6.14;81.04;101641.31;6216482;28;20200;-79
2020/12/07 09:26:47;;;;;;;8.27;5.10;;;;;;;6.26;81.18;101680.63;6215955;28;20592;-78
2020/12/07 09:29:50;;;;;;;9.67;5.80;;;;;;;6.13;81.57;101661.31;6216817;28;20285;-78
2020/12/07 09:32:54;;;;;;;6.97;4.67;;;;;;;6.30;81.18;101679.25;6220416;28;20252;-78
2020/12/07 09:35:57;;;;;;;6.27;4.73;;;;;;;6.38;80.46;101674.84;6221066;28;20224;-78
2020/12/07 09:39:01;;;;;;;6.43;5.40;;;;;;;6.43;79.83;101684.16;6202748;28;20400;-78
2020/12/07 09:42:06;;;;;;;5.80;5.20;;;;;;;6.22;79.58;101621.50;6221935;28;20213;-77
2020/12/07 09:45:12;;;;;;;9.63;5.67;;;;;;;6.44;80.26;101669.63;6212162;28;20219;-77
2020/12/07 09:48:18;;;;;;;15.57;5.50;;;;;;;6.41;80.61;101669.09;6202975;28;20733;-78
2020/12/07 09:51:21;;;;;;;8.60;5.37;;;;;;;6.45;80.58;101675.84;6218164;28;20197;-79
2020/12/07 09:54:25;;;;;;;9.33;5.17;;;;;;;6.32;81.51;101672.84;6219124;28;20254;-78
2020/12/07 09:57:29;;;;;;;13.37;5.53;;;;;;;6.34;80.48;101673.50;6221384;28;20197;-78
2020/12/07 10:00:32;;;;;;;10.53;4.97;;;;;;;6.25;80.84;101665.38;6209274;28;20212;-78
2020/12/07 10:03:49;;;;;;;8.73;5.03;;;;;;;6.45;80.08;101678.56;6220427;28;20242;-78
2020/12/07 10:06:53;;;;;;;11.33;5.43;;;;;;;6.46;80.06;101672.13;6220699;28;20569;-78
2020/12/07 10:09:57;;;;;;;6.63;4.93;;;;;;;6.38;79.51;101670.28;6220023;28;20200;-78
2020/12/07 10:13:00;;;;;;;7.80;5.03;;;;;;;6.18;80.04;101668.94;6220639;28;20795;-77
2020/12/07 10:16:05;;;;;;;7.63;4.70;;;;;;;6.19;79.06;101666.03;6220294;28;20203;-78
2020/12/07 10:19:11;;;;;;;5.37;4.40;;;;;;;5.95;79.25;101652.47;6213047;28;20202;-79
2020/12/07 10:22:14;;;;;;;7.13;5.00;;;;;;;6.17;79.51;101676.19;6205666;28;20279;-78
2020/12/07 10:25:18;;;;;;;7.70;4.93;;;;;;;6.13;79.46;101677.56;6220007;28;20229;-79
2020/12/07 10:28:21;;;;;;;11.23;5.10;;;;;;;6.13;78.90;101663.16;6220228;28;20649;-78
2020/12/07 10:31:24;;;;;;;10.77;4.90;;;;;;;6.18;80.04;101668.94;6221110;28;20283;-78
2020/12/07 10:34:28;;;;;;;6.30;4.80;;;;;;;6.25;79.04;101681.63;6209671;28;20670;-78
2020/12/07 10:37:31;;;;;;;9.10;4.90;;;;;;;6.08;79.06;101658.25;6219495;28;20201;-80
2020/12/07 10:40:35;;;;;;;14.00;5.10;;;;;;;6.24;79.09;101679.91;6219269;28;20249;-78
2020/12/07 10:43:40;;;;;;;5.47;4.83;;;;;;;6.07;79.87;101655.69;6200760;28;20212;-79
2020/12/07 10:46:44;;;;;;;6.67;4.83;;;;;;;6.17;80.03;101662.66;6220888;28;20216;-78
2020/12/07 10:49:47;;;;;;;6.67;4.90;;;;;;;6.12;80.45;101664.16;6216380;28;20227;-78
2020/12/07 10:52:50;;;;;;;7.33;5.23;;;;;;;6.24;79.48;101641.97;6215966;28;20214;-78
2020/12/07 10:55:55;;;;;;;10.17;5.20;;;;;;;6.34;79.35;101663.53;6209034;28;20208;-77
2020/12/07 10:58:58;;;;;;;8.60;4.60;;;;;;;6.32;78.98;101649.25;6214421;28;20248;-77
2020/12/07 11:02:02;;;;;;;7.30;5.07;;;;;;;6.24;79.42;101658.25;6219245;28;20208;-78
2020/12/07 11:05:07;;;;;;;6.53;5.10;;;;;;;6.04;81.01;101664.16;6220021;28;20191;-77
2020/12/07 11:08:18;;;;;;;8.80;5.03;;;;;;;5.47;80.76;101576.56;6219212;28;20796;-78
2020/12/07 11:11:23;;;;;;;5.50;4.70;;;;;;;6.04;80.18;101662.28;6202566;28;20217;-78
2020/12/07 11:14:26;;;;;;;5.43;4.97;;;;;;;6.07;79.94;101656.56;6219688;28;20213;-78
2020/12/07 11:17:29;;;;;;;7.73;4.47;;;;;;;6.07;79.58;101656.56;6213720;28;20202;-78
2020/12/07 11:20:33;;;;;;;10.07;5.07;;;;;;;6.16;79.76;101660.94;6217677;28;20211;-79
2020/12/07 11:23:38;;;;;;;6.07;4.60;;;;;;;6.05;80.26;101653.16;6217394;28;20674;-78
2020/12/07 11:26:42;;;;;;;13.50;4.87;;;;;;;6.18;79.33;101650.81;6232469;28;20237;-78
2020/12/07 11:29:45;;;;;;;7.87;4.80;;;;;;;6.30;79.45;101652.16;6243892;28;20196;-77
2020/12/07 11:32:49;;;;;;;7.00;4.87;;;;;;;6.27;79.76;101663.31;6221173;28;20577;-79
2020/12/07 11:35:52;;;;;;;12.30;5.23;;;;;;;5.73;80.98;101611.63;6219555;28;20235;-79
2020/12/07 11:39:17;;;;;;;7.37;5.27;;;;;;;6.01;80.17;101624.69;6220949;28;20189;-78
2020/12/07 11:42:29;;;;;;;10.83;5.17;;;;;;;6.12;80.08;101648.75;6230418;28;20300;-78
2020/12/07 11:45:33;;;;;;;8.30;4.70;;;;;;;6.05;79.66;101631.50;6211940;28;20213;-78
2020/12/07 11:48:36;;;;;;;9.37;5.00;;;;;;;6.17;79.80;101640.13;6218618;28;20275;-78
2020/12/07 11:51:40;;;;;;;4.90;4.60;;;;;;;6.20;79.39;101629.81;6215471;28;20194;-79
2020/12/07 11:54:43;;;;;;;6.53;4.20;;;;;;;6.29;79.17;101634.19;6216756;28;20217;-78
2020/12/07 11:57:48;;;;;;;5.83;4.57;;;;;;;6.29;78.96;101617.94;6217613;28;20304;-78
2020/12/07 12:00:51;;;;;;;9.37;4.73;;;;;;;6.06;79.68;101627.75;6214517;28;20230;-78
2020/12/07 12:04:06;;;;;;;7.17;4.50;;;;;;;6.12;79.63;101627.09;6223974;28;20531;-78
2020/12/07 12:07:11;;;;;;;7.80;4.77;;;;;;;6.18;79.28;101631.84;6223960;28;20699;-78
2020/12/07 12:10:14;;;;;;;8.20;4.63;;;;;;;6.14;79.42;101625.06;6238558;28;20212;-80
2020/12/07 12:13:20;;;;;;;7.47;4.97;;;;;;;6.15;79.11;101615.91;6243479;28;20236;-78
2020/12/07 12:16:27;;;;;;;9.23;4.20;;;;;;;6.23;79.14;101617.78;6217353;28;20213;-77
2020/12/07 12:19:37;;;;;;;7.00;4.60;;;;;;;6.13;79.37;101617.09;6195955;28;20304;-78
2020/12/07 12:22:41;;;;;;;6.33;4.23;;;;;;;6.13;79.50;101628.78;6211948;28;20201;-78
2020/12/07 12:25:44;;;;;;;8.50;4.70;;;;;;;6.29;78.36;101615.22;6216902;28;20592;-78
2020/12/07 12:28:49;;;;;;;5.23;4.70;;;;;;;6.09;78.70;101624.72;6217438;28;20204;-78
2020/12/07 12:31:52;;;;;;;5.90;4.20;;;;;;;6.16;78.03;101633.84;6218575;28;20282;-78
2020/12/07 12:34:56;;;;;;;6.13;3.77;;;;;;;6.03;77.88;101605.59;6209154;28;20252;-78
2020/12/07 12:38:00;;;;;;;5.27;4.37;;;;;;;6.02;78.50;101626.41;6215204;28;20597;-79
2020/12/07 12:41:03;;;;;;;7.03;4.90;;;;;;;5.98;78.47;101625.06;6216842;28;20263;-78
2020/12/07 12:44:11;;;;;;;6.87;4.30;;;;;;;6.03;78.07;101603.72;6194454;28;20246;-78
2020/12/07 12:47:14;;;;;;;8.13;4.97;;;;;;;6.01;79.08;101619.28;6215326;28;20200;-77
2020/12/07 12:50:17;;;;;;;6.47;4.20;;;;;;;5.94;78.62;101604.72;6211120;28;20244;-78
2020/12/07 12:53:22;;;;;;;4.90;4.40;;;;;;;5.55;78.27;101541.34;6217929;28;20704;-77
2020/12/07 12:56:26;;;;;;;6.57;4.53;;;;;;;5.83;77.81;101598.78;6211246;28;20273;-77
2020/12/07 12:59:31;;;;;;;4.67;4.17;;;;;;;5.92;77.82;101620.31;6222084;28;20274;-79
2020/12/07 13:02:34;;;;;;;7.23;4.03;;;;;;;5.98;77.22;101624.22;6223825;28;20291;-78
2020/12/07 13:05:37;;;;;;;5.40;3.97;;;;;;;5.85;77.36;101624.72;6223562;28;20197;-79
2020/12/07 13:08:40;;;;;;;7.77;4.00;;;;;;;5.87;77.07;101638.94;6224679;28;20290;-79
2020/12/07 13:11:47;;;;;;;6.20;3.63;;;;;;;5.90;77.11;101627.75;6219834;28;20291;-77
2020/12/07 13:14:50;;;;;;;4.53;4.17;;;;;;;6.01;76.31;101623.88;6196543;28;20225;-77
2020/12/07 13:17:56;;;;;;;9.70;4.20;;;;;;;6.05;76.11;101626.06;6214444;28;20207;-77
2020/12/07 13:21:04;;;;;;;6.17;4.27;;;;;;;5.92;77.08;101623.00;6217620;28;20212;-77
2020/12/07 13:24:15;;;;;;;14.27;4.53;;;;;;;5.86;77.01;101637.22;6204422;28;20212;-79
2020/12/07 13:27:26;;;;;;;4.80;3.50;;;;;;;5.84;76.10;101606.72;6222024;28;20296;-79
2020/12/07 13:30:30;;;;;;;10.40;4.33;;;;;;;5.72;76.56;101624.31;6215291;28;20212;-79
2020/12/07 13:33:40;;;;;;;4.40;4.10;;;;;;;5.60;77.18;101631.03;6209712;28;20248;-79
2020/12/07 13:36:44;;;;;;;5.07;4.13;;;;;;;5.57;77.08;101615.16;6204268;28;20255;-78
2020/12/07 13:39:47;;;;;;;6.87;4.10;;;;;;;5.78;76.40;101650.72;6215914;28;20207;-79
2020/12/07 13:42:50;;;;;;;4.33;3.93;;;;;;;5.81;75.62;101623.28;6206184;28;20208;-77
2020/12/07 13:45:56;;;;;;;7.70;3.80;;;;;;;5.86;74.90;101631.81;6219790;28;20219;-79
2020/12/07 13:49:00;;;;;;;5.23;3.70;;;;;;;5.65;75.85;101644.91;6218068;28;20210;-79
2020/12/07 13:52:08;;;;;;;8.03;4.00;;;;;;;5.74;76.17;101649.34;6221259;28;20197;-78
2020/12/07 13:55:11;;;;;;;4.67;4.17;;;;;;;5.86;75.88;101648.06;6221991;28;20210;-79
2020/12/07 13:58:17;;;;;;;12.90;4.23;;;;;;;5.88;76.05;101654.13;6220850;28;20533;-78
2020/12/07 14:01:21;;;;;;;6.30;4.20;;;;;;;5.91;75.56;101651.09;6221398;28;20196;-78
2020/12/07 14:04:34;;;;;;;6.80;4.50;;;;;;;5.64;75.61;101632.41;6215803;28;20320;-78
2020/12/07 14:07:37;;;;;;;5.53;4.30;;;;;;;5.90;75.43;101660.25;6220750;28;20225;-78
2020/12/07 14:10:41;;;;;;;4.27;3.80;;;;;;;5.77;74.58;101643.63;6219578;28;20710;-78
2020/12/07 14:13:44;;;;;;;7.67;4.20;;;;;;;5.58;75.23;101630.34;6213703;28;20576;-79
2020/12/07 14:16:57;;;;;;;6.33;4.00;;;;;;;5.48;75.51;101648.59;6211746;28;20386;-78
2020/12/07 14:20:08;;;;;;;7.37;4.13;;;;;;;5.42;76.32;101660.06;6212358;28;20201;-78
2020/12/07 14:23:21;;;;;;;7.33;3.80;;;;;;;5.49;75.94;101661.13;6210677;28;20213;-78
2020/12/07 14:26:28;;;;;;;5.10;3.70;;;;;;;5.57;75.75;101663.88;6220012;28;20240;-78
2020/12/07 14:30:15;;;;;;;7.70;4.33;;;;;;;5.51;76.45;101659.09;6216099;28;20289;-78
2020/12/07 14:40:13;;;;;;;4.30;4.00;;;;;;;5.44;76.98;101663.50;6220702;28;20277;-77
2020/12/07 14:43:17;;;;;;;4.30;3.77;;;;;;;5.30;77.07;101658.69;6219655;28;20200;-78
2020/12/07 14:46:23;;;;;;;5.33;3.77;;;;;;;5.51;76.35;101669.94;6210404;28;20196;-79
2020/12/07 14:49:28;;;;;;;4.97;3.43;;;;;;;5.56;76.32;101670.28;6219700;28;20687;-79
2020/12/07 14:52:32;;;;;;;9.00;4.13;;;;;;;5.62;76.57;101661.53;6218934;28;20635;-78
2020/12/07 14:55:38;;;;;;;7.23;3.97;;;;;;;5.40;76.69;101635.91;6220278;28;20226;-79